sensor_id;sensor_type;location;lat;lon;timestamp;pressure;altitude;pressure_sealevel;temperature;humidity
8140;BME280;4111;50.972;7.072;2022-07-10T00:02:11;102131.63;;;16.89;65.63
8140;BME280;4111;50.972;7.072;2022-07-10T00:04:38;102127.63;;;16.79;65.80
8140;BME280;4111;50.972;7.072;2022-07-10T00:07:04;102127.81;;;16.73;65.96
8140;BME280;4111;50.972;7.072;2022-07-10T00:09:33;102124.78;;;16.74;66.36
8140;BME280;4111;50.972;7.072;2022-07-10T00:11:59;102128.63;;;16.73;66.65
8140;BME280;4111;50.972;7.072;2022-07-10T00:14:26;102113.81;;;16.74;66.62
8140;BME280;4111;50.972;7.072;2022-07-10T00:16:52;102120.91;;;16.70;66.75
8140;BME280;4111;50.972;7.072;2022-07-10T00:19:19;102124.16;;;16.67;66.89
8140;BME280;4111;50.972;7.072;2022-07-10T00:21:45;102124.75;;;16.69;66.88
8140;BME280;4111;50.972;7.072;2022-07-10T00:24:12;102116.44;;;16.64;66.99
8140;BME280;4111;50.972;7.072;2022-07-10T00:26:38;102117.47;;;16.58;66.73
8140;BME280;4111;50.972;7.072;2022-07-10T00:29:05;102121.22;;;16.52;67.37
8140;BME280;4111;50.972;7.072;2022-07-10T00:31:31;102126.50;;;16.58;67.33
8140;BME280;4111;50.972;7.072;2022-07-10T00:33:58;102117.69;;;16.56;67.43
8140;BME280;4111;50.972;7.072;2022-07-10T00:36:24;102122.84;;;16.53;67.49
8140;BME280;4111;50.972;7.072;2022-07-10T00:38:51;102127.19;;;16.49;67.27
8140;BME280;4111;50.972;7.072;2022-07-10T00:41:17;102124.41;;;16.43;67.58
8140;BME280;4111;50.972;7.072;2022-07-10T00:43:59;102118.91;;;16.43;67.88
8140;BME280;4111;50.972;7.072;2022-07-10T00:46:27;102118.91;;;16.43;67.72
8140;BME280;4111;50.972;7.072;2022-07-10T00:48:55;102116.59;;;16.35;67.83
8140;BME280;4111;50.972;7.072;2022-07-10T00:51:24;102115.22;;;16.16;68.11
8140;BME280;4111;50.972;7.072;2022-07-10T00:53:52;102113.78;;;16.13;68.44
8140;BME280;4111;50.972;7.072;2022-07-10T00:56:21;102114.69;;;16.19;68.32
8140;BME280;4111;50.972;7.072;2022-07-10T00:58:49;102118.19;;;16.14;68.48
8140;BME280;4111;50.972;7.072;2022-07-10T01:01:16;102121.94;;;16.08;68.78
8140;BME280;4111;50.972;7.072;2022-07-10T01:03:44;102119.25;;;16.13;68.76
8140;BME280;4111;50.972;7.072;2022-07-10T01:06:13;102109.63;;;16.11;68.75
8140;BME280;4111;50.972;7.072;2022-07-10T01:08:39;102118.09;;;16.09;68.86
8140;BME280;4111;50.972;7.072;2022-07-10T01:11:08;102106.50;;;16.02;69.04
8140;BME280;4111;50.972;7.072;2022-07-10T01:13:34;102106.50;;;16.02;68.96
8140;BME280;4111;50.972;7.072;2022-07-10T01:16:01;102106.06;;;15.93;69.26
8140;BME280;4111;50.972;7.072;2022-07-10T01:18:28;102101.19;;;15.95;69.63
8140;BME280;4111;50.972;7.072;2022-07-10T01:20:55;102103.34;;;15.93;69.34
8140;BME280;4111;50.972;7.072;2022-07-10T01:23:22;102095.63;;;15.90;69.38
8140;BME280;4111;50.972;7.072;2022-07-10T01:25:49;102096.69;;;15.89;69.71
8140;BME280;4111;50.972;7.072;2022-07-10T01:28:17;102094.06;;;15.94;69.57
8140;BME280;4111;50.972;7.072;2022-07-10T01:30:44;102087.75;;;15.94;69.76
8140;BME280;4111;50.972;7.072;2022-07-10T01:33:10;102081.41;;;15.93;69.79
8140;BME280;4111;50.972;7.072;2022-07-10T01:35:37;102079.25;;;15.95;69.93
8140;BME280;4111;50.972;7.072;2022-07-10T01:38:03;102081.94;;;15.90;69.61
8140;BME280;4111;50.972;7.072;2022-07-10T01:40:30;102078.63;;;15.88;69.59
8140;BME280;4111;50.972;7.072;2022-07-10T01:42:57;102079.44;;;15.89;69.92
8140;BME280;4111;50.972;7.072;2022-07-10T01:45:24;102076.31;;;15.80;70.50
8140;BME280;4111;50.972;7.072;2022-07-10T01:47:51;102074.13;;;15.82;70.21
8140;BME280;4111;50.972;7.072;2022-07-10T01:50:18;102082.84;;;15.79;70.48
8140;BME280;4111;50.972;7.072;2022-07-10T01:52:45;102075.44;;;15.79;70.58
8140;BME280;4111;50.972;7.072;2022-07-10T01:55:11;102078.94;;;15.75;70.62
8140;BME280;4111;50.972;7.072;2022-07-10T01:57:38;102085.97;;;15.71;70.90
8140;BME280;4111;50.972;7.072;2022-07-10T02:00:05;102087.97;;;15.75;70.67
8140;BME280;4111;50.972;7.072;2022-07-10T02:02:31;102081.31;;;15.71;70.91
8140;BME280;4111;50.972;7.072;2022-07-10T02:04:58;102073.09;;;15.71;71.16
8140;BME280;4111;50.972;7.072;2022-07-10T02:07:24;102075.13;;;15.76;71.09
8140;BME280;4111;50.972;7.072;2022-07-10T02:09:52;102078.75;;;15.64;71.39
8140;BME280;4111;50.972;7.072;2022-07-10T02:12:19;102080.91;;;15.62;71.65
8140;BME280;4111;50.972;7.072;2022-07-10T02:14:45;102074.91;;;15.65;71.99
8140;BME280;4111;50.972;7.072;2022-07-10T02:17:12;102073.34;;;15.70;72.10
8140;BME280;4111;50.972;7.072;2022-07-10T02:19:38;102071.13;;;15.66;71.90
8140;BME280;4111;50.972;7.072;2022-07-10T02:22:05;102067.78;;;15.64;71.83
8140;BME280;4111;50.972;7.072;2022-07-10T02:24:31;102061.72;;;15.62;72.33
8140;BME280;4111;50.972;7.072;2022-07-10T02:26:58;102068.38;;;15.66;71.97
8140;BME280;4111;50.972;7.072;2022-07-10T02:29:24;102060.16;;;15.66;72.45
8140;BME280;4111;50.972;7.072;2022-07-10T02:31:52;102055.25;;;15.69;72.55
8140;BME280;4111;50.972;7.072;2022-07-10T02:34:18;102058.72;;;15.76;72.24
8140;BME280;4111;50.972;7.072;2022-07-10T02:36:45;102057.03;;;15.75;72.33
8140;BME280;4111;50.972;7.072;2022-07-10T02:39:11;102057.38;;;15.78;72.24
8140;BME280;4111;50.972;7.072;2022-07-10T02:41:38;102052.72;;;15.79;72.54
8140;BME280;4111;50.972;7.072;2022-07-10T02:44:04;102056.56;;;15.78;72.50
8140;BME280;4111;50.972;7.072;2022-07-10T02:46:31;102056.63;;;15.83;72.63
8140;BME280;4111;50.972;7.072;2022-07-10T02:48:57;102056.56;;;15.78;72.56
8140;BME280;4111;50.972;7.072;2022-07-10T02:51:24;102052.63;;;15.74;72.69
8140;BME280;4111;50.972;7.072;2022-07-10T02:53:50;102051.56;;;15.75;72.63
8140;BME280;4111;50.972;7.072;2022-07-10T02:56:17;102052.00;;;15.72;73.01
8140;BME280;4111;50.972;7.072;2022-07-10T02:58:43;102055.84;;;15.71;72.96
8140;BME280;4111;50.972;7.072;2022-07-10T03:01:10;102054.16;;;15.70;73.09
8140;BME280;4111;50.972;7.072;2022-07-10T03:03:36;102059.81;;;15.63;72.89
8140;BME280;4111;50.972;7.072;2022-07-10T03:06:03;102056.59;;;15.66;73.32
8140;BME280;4111;50.972;7.072;2022-07-10T03:08:29;102054.16;;;15.70;73.41
8140;BME280;4111;50.972;7.072;2022-07-10T03:10:56;102060.84;;;15.74;73.44
8140;BME280;4111;50.972;7.072;2022-07-10T03:13:22;102065.81;;;15.77;73.18
8140;BME280;4111;50.972;7.072;2022-07-10T03:15:48;102067.16;;;15.74;73.29
8140;BME280;4111;50.972;7.072;2022-07-10T03:18:15;102066.31;;;15.74;73.24
8140;BME280;4111;50.972;7.072;2022-07-10T03:20:42;102065.81;;;15.77;73.26
8140;BME280;4111;50.972;7.072;2022-07-10T03:23:08;102065.06;;;15.81;72.95
8140;BME280;4111;50.972;7.072;2022-07-10T03:25:35;102073.81;;;15.78;73.03
8140;BME280;4111;50.972;7.072;2022-07-10T03:28:01;102067.75;;;15.76;72.93
8140;BME280;4111;50.972;7.072;2022-07-10T03:30:28;102065.34;;;15.80;73.09
8140;BME280;4111;50.972;7.072;2022-07-10T03:32:54;102072.75;;;15.67;73.48
8140;BME280;4111;50.972;7.072;2022-07-10T03:35:21;102071.44;;;15.70;73.50
8140;BME280;4111;50.972;7.072;2022-07-10T03:37:47;102077.28;;;15.74;73.37
8140;BME280;4111;50.972;7.072;2022-07-10T03:40:14;102073.47;;;15.75;73.86
8140;BME280;4111;50.972;7.072;2022-07-10T03:42:40;102075.72;;;15.78;73.73
8140;BME280;4111;50.972;7.072;2022-07-10T03:45:07;102075.44;;;15.79;73.63
8140;BME280;4111;50.972;7.072;2022-07-10T03:47:34;102076.78;;;15.77;74.14
8140;BME280;4111;50.972;7.072;2022-07-10T03:50:00;102078.75;;;15.81;74.25
8140;BME280;4111;50.972;7.072;2022-07-10T03:52:27;102072.13;;;15.77;73.86
8140;BME280;4111;50.972;7.072;2022-07-10T03:54:54;102069.66;;;15.76;74.10
8140;BME280;4111;50.972;7.072;2022-07-10T03:57:21;102071.88;;;15.79;74.04
8140;BME280;4111;50.972;7.072;2022-07-10T04:00:07;102066.50;;;15.84;73.93
8140;BME280;4111;50.972;7.072;2022-07-10T04:02:33;102060.50;;;15.87;73.86
8140;BME280;4111;50.972;7.072;2022-07-10T04:05:00;102064.34;;;15.86;74.18
8140;BME280;4111;50.972;7.072;2022-07-10T04:07:27;102063.34;;;15.92;74.03
8140;BME280;4111;50.972;7.072;2022-07-10T04:09:53;102057.84;;;15.92;74.11
8140;BME280;4111;50.972;7.072;2022-07-10T04:12:20;102058.00;;;15.85;74.21
8140;BME280;4111;50.972;7.072;2022-07-10T04:14:46;102057.53;;;15.89;74.19
8140;BME280;4111;50.972;7.072;2022-07-10T04:17:14;102065.97;;;15.87;74.41
8140;BME280;4111;50.972;7.072;2022-07-10T04:19:41;102059.50;;;15.93;74.38
8140;BME280;4111;50.972;7.072;2022-07-10T04:22:07;102065.84;;;15.94;74.31
8140;BME280;4111;50.972;7.072;2022-07-10T04:24:33;102062.34;;;15.98;74.37
8140;BME280;4111;50.972;7.072;2022-07-10T04:27:00;102063.97;;;15.99;74.52
8140;BME280;4111;50.972;7.072;2022-07-10T04:29:27;102070.75;;;15.92;74.84
8140;BME280;4111;50.972;7.072;2022-07-10T04:31:53;102069.41;;;15.94;75.07
8140;BME280;4111;50.972;7.072;2022-07-10T04:34:20;102063.97;;;15.99;75.18
8140;BME280;4111;50.972;7.072;2022-07-10T04:36:47;102063.50;;;16.02;74.86
8140;BME280;4111;50.972;7.072;2022-07-10T04:39:14;102068.31;;;15.95;75.09
8140;BME280;4111;50.972;7.072;2022-07-10T04:41:40;102060.16;;;16.00;75.48
8140;BME280;4111;50.972;7.072;2022-07-10T04:44:07;102061.31;;;16.04;75.22
8140;BME280;4111;50.972;7.072;2022-07-10T04:46:33;102065.97;;;16.04;75.46
8140;BME280;4111;50.972;7.072;2022-07-10T04:49:00;102067.91;;;16.03;75.27
8140;BME280;4111;50.972;7.072;2022-07-10T04:51:26;102072.78;;;16.01;75.65
8140;BME280;4111;50.972;7.072;2022-07-10T04:53:53;102066.72;;;15.99;75.88
8140;BME280;4111;50.972;7.072;2022-07-10T04:56:19;102080.75;;;16.03;75.52
8140;BME280;4111;50.972;7.072;2022-07-10T04:58:46;102062.16;;;16.05;75.33
8140;BME280;4111;50.972;7.072;2022-07-10T05:01:18;102066.03;;;16.09;75.47
8140;BME280;4111;50.972;7.072;2022-07-10T05:03:45;102067.81;;;16.15;75.37
8140;BME280;4111;50.972;7.072;2022-07-10T05:06:11;102071.03;;;16.12;75.60
8140;BME280;4111;50.972;7.072;2022-07-10T05:08:38;102072.44;;;16.15;75.88
8140;BME280;4111;50.972;7.072;2022-07-10T05:11:06;102073.28;;;16.15;75.41
8140;BME280;4111;50.972;7.072;2022-07-10T05:13:32;102074.34;;;16.14;75.09
8140;BME280;4111;50.972;7.072;2022-07-10T05:15:59;102077.28;;;16.08;75.25
8140;BME280;4111;50.972;7.072;2022-07-10T05:18:26;102072.94;;;16.12;75.67
8140;BME280;4111;50.972;7.072;2022-07-10T05:20:53;102073.91;;;16.22;75.47
8140;BME280;4111;50.972;7.072;2022-07-10T05:23:19;102079.25;;;16.29;74.91
8140;BME280;4111;50.972;7.072;2022-07-10T05:25:45;102083.38;;;16.32;74.40
8140;BME280;4111;50.972;7.072;2022-07-10T05:28:12;102081.53;;;16.37;74.53
8140;BME280;4111;50.972;7.072;2022-07-10T05:30:42;102084.53;;;16.36;74.63
8140;BME280;4111;50.972;7.072;2022-07-10T05:33:08;102086.00;;;16.43;74.60
8140;BME280;4111;50.972;7.072;2022-07-10T05:35:35;102085.00;;;16.50;74.66
8140;BME280;4111;50.972;7.072;2022-07-10T05:38:02;102092.97;;;16.51;74.05
8140;BME280;4111;50.972;7.072;2022-07-10T05:40:28;102097.13;;;16.54;74.08
8140;BME280;4111;50.972;7.072;2022-07-10T05:42:55;102098.78;;;16.55;74.32
8140;BME280;4111;50.972;7.072;2022-07-10T05:45:21;102102.09;;;16.57;73.69
8140;BME280;4111;50.972;7.072;2022-07-10T05:47:48;102093.94;;;16.62;73.55
8140;BME280;4111;50.972;7.072;2022-07-10T05:50:14;102097.91;;;16.71;73.17
8140;BME280;4111;50.972;7.072;2022-07-10T05:52:41;102094.63;;;16.74;72.76
8140;BME280;4111;50.972;7.072;2022-07-10T05:55:08;102097.06;;;16.71;72.48
8140;BME280;4111;50.972;7.072;2022-07-10T05:57:35;102088.88;;;16.76;72.67
8140;BME280;4111;50.972;7.072;2022-07-10T06:00:03;102092.06;;;16.84;72.45
8140;BME280;4111;50.972;7.072;2022-07-10T06:02:31;102084.97;;;16.89;72.06
8140;BME280;4111;50.972;7.072;2022-07-10T06:04:57;102084.44;;;16.92;71.94
8140;BME280;4111;50.972;7.072;2022-07-10T06:07:24;102087.75;;;16.94;71.60
8140;BME280;4111;50.972;7.072;2022-07-10T06:09:50;102096.00;;;16.94;71.33
8140;BME280;4111;50.972;7.072;2022-07-10T06:12:17;102082.13;;;17.05;71.20
8140;BME280;4111;50.972;7.072;2022-07-10T06:14:43;102079.47;;;17.11;71.09
8140;BME280;4111;50.972;7.072;2022-07-10T06:17:10;102081.75;;;17.19;71.05
8140;BME280;4111;50.972;7.072;2022-07-10T06:19:37;102081.75;;;17.19;70.60
8140;BME280;4111;50.972;7.072;2022-07-10T06:22:03;102076.59;;;17.28;70.85
8140;BME280;4111;50.972;7.072;2022-07-10T06:24:48;102088.78;;;17.37;70.64
8140;BME280;4111;50.972;7.072;2022-07-10T06:27:15;102085.47;;;17.35;71.09
8140;BME280;4111;50.972;7.072;2022-07-10T06:29:41;102089.41;;;17.44;70.35
8140;BME280;4111;50.972;7.072;2022-07-10T06:32:08;102083.03;;;17.38;69.83
8140;BME280;4111;50.972;7.072;2022-07-10T06:34:35;102092.72;;;17.46;69.62
8140;BME280;4111;50.972;7.072;2022-07-10T06:37:01;102085.13;;;17.58;69.17
8140;BME280;4111;50.972;7.072;2022-07-10T06:39:32;102080.94;;;17.83;68.76
8140;BME280;4111;50.972;7.072;2022-07-10T06:42:04;102086.56;;;17.93;67.52
8140;BME280;4111;50.972;7.072;2022-07-10T06:44:31;102080.22;;;17.93;67.34
8140;BME280;4111;50.972;7.072;2022-07-10T06:46:59;102086.63;;;18.03;66.84
8140;BME280;4111;50.972;7.072;2022-07-10T06:49:46;102097.84;;;17.97;65.91
8140;BME280;4111;50.972;7.072;2022-07-10T06:52:15;102086.72;;;17.81;66.00
8140;BME280;4111;50.972;7.072;2022-07-10T06:54:42;102090.38;;;17.87;66.12
8140;BME280;4111;50.972;7.072;2022-07-10T06:57:08;102092.94;;;18.04;66.02
8140;BME280;4111;50.972;7.072;2022-07-10T06:59:35;102077.59;;;18.08;65.92
8140;BME280;4111;50.972;7.072;2022-07-10T07:02:02;102080.03;;;18.04;65.45
8140;BME280;4111;50.972;7.072;2022-07-10T07:04:28;102085.63;;;18.15;65.15
8140;BME280;4111;50.972;7.072;2022-07-10T07:06:55;102087.31;;;18.26;65.16
8140;BME280;4111;50.972;7.072;2022-07-10T07:09:22;102083.00;;;18.35;65.03
8140;BME280;4111;50.972;7.072;2022-07-10T07:11:48;102072.53;;;18.37;64.30
8140;BME280;4111;50.972;7.072;2022-07-10T07:14:15;102076.72;;;18.50;64.10
8140;BME280;4111;50.972;7.072;2022-07-10T07:16:42;102078.69;;;18.55;64.11
8140;BME280;4111;50.972;7.072;2022-07-10T07:19:11;102082.22;;;18.45;63.59
8140;BME280;4111;50.972;7.072;2022-07-10T07:21:44;102084.09;;;18.39;63.53
8140;BME280;4111;50.972;7.072;2022-07-10T07:24:28;102083.56;;;18.37;63.61
8140;BME280;4111;50.972;7.072;2022-07-10T07:26:55;102077.19;;;18.32;62.95
8140;BME280;4111;50.972;7.072;2022-07-10T07:29:21;102084.06;;;18.29;63.30
8140;BME280;4111;50.972;7.072;2022-07-10T07:31:48;102088.75;;;18.29;63.63
8140;BME280;4111;50.972;7.072;2022-07-10T07:34:14;102087.66;;;18.35;63.72
8140;BME280;4111;50.972;7.072;2022-07-10T07:36:41;102085.22;;;18.43;63.99
8140;BME280;4111;50.972;7.072;2022-07-10T07:39:07;102086.34;;;18.42;62.98
8140;BME280;4111;50.972;7.072;2022-07-10T07:41:34;102097.63;;;18.03;62.16
8140;BME280;4111;50.972;7.072;2022-07-10T07:44:01;102100.56;;;17.92;63.13
8140;BME280;4111;50.972;7.072;2022-07-10T07:46:27;102103.63;;;18.00;63.30
8140;BME280;4111;50.972;7.072;2022-07-10T07:48:54;102087.53;;;18.14;63.32
8140;BME280;4111;50.972;7.072;2022-07-10T07:51:20;102097.69;;;18.14;63.52
8140;BME280;4111;50.972;7.072;2022-07-10T07:53:46;102098.81;;;18.18;63.32
8140;BME280;4111;50.972;7.072;2022-07-10T07:56:13;102092.25;;;18.19;63.32
8140;BME280;4111;50.972;7.072;2022-07-10T07:58:39;102094.16;;;18.18;63.26
8140;BME280;4111;50.972;7.072;2022-07-10T08:01:07;102093.31;;;18.13;62.77
8140;BME280;4111;50.972;7.072;2022-07-10T08:03:33;102096.69;;;18.30;63.31
8140;BME280;4111;50.972;7.072;2022-07-10T08:06:20;102100.50;;;18.19;62.99
8140;BME280;4111;50.972;7.072;2022-07-10T08:08:46;102101.00;;;18.16;63.45
8140;BME280;4111;50.972;7.072;2022-07-10T08:11:13;102099.72;;;18.29;63.38
8140;BME280;4111;50.972;7.072;2022-07-10T08:13:39;102097.81;;;18.29;63.35
8140;BME280;4111;50.972;7.072;2022-07-10T08:16:06;102095.56;;;18.26;63.04
8140;BME280;4111;50.972;7.072;2022-07-10T08:18:34;102097.69;;;18.14;62.85
8140;BME280;4111;50.972;7.072;2022-07-10T08:21:01;102088.38;;;18.15;63.05
8140;BME280;4111;50.972;7.072;2022-07-10T08:23:27;102091.75;;;18.27;63.42
8140;BME280;4111;50.972;7.072;2022-07-10T08:25:54;102085.63;;;18.15;62.93
8140;BME280;4111;50.972;7.072;2022-07-10T08:28:20;102081.19;;;18.14;63.06
8140;BME280;4111;50.972;7.072;2022-07-10T08:30:50;102084.75;;;18.09;63.34
8140;BME280;4111;50.972;7.072;2022-07-10T08:33:16;102094.84;;;17.98;63.80
8140;BME280;4111;50.972;7.072;2022-07-10T08:35:43;102093.78;;;18.04;63.77
8140;BME280;4111;50.972;7.072;2022-07-10T08:38:09;102096.81;;;18.03;63.84
8140;BME280;4111;50.972;7.072;2022-07-10T08:40:36;102101.47;;;18.02;64.04
8140;BME280;4111;50.972;7.072;2022-07-10T08:43:03;102094.38;;;18.12;64.23
8140;BME280;4111;50.972;7.072;2022-07-10T08:45:33;102099.31;;;18.10;64.23
8140;BME280;4111;50.972;7.072;2022-07-10T08:48:04;102100.94;;;18.06;64.54
8140;BME280;4111;50.972;7.072;2022-07-10T08:50:33;102102.06;;;18.10;64.85
8140;BME280;4111;50.972;7.072;2022-07-10T08:53:12;102100.41;;;18.09;64.89
8140;BME280;4111;50.972;7.072;2022-07-10T08:55:39;102100.13;;;18.10;65.29
8140;BME280;4111;50.972;7.072;2022-07-10T08:58:08;102099.44;;;18.25;65.45
8140;BME280;4111;50.972;7.072;2022-07-10T09:00:35;102098.38;;;18.31;65.68
8140;BME280;4111;50.972;7.072;2022-07-10T09:03:01;102089.03;;;18.37;65.58
8140;BME280;4111;50.972;7.072;2022-07-10T09:05:28;102100.84;;;18.33;65.56
8140;BME280;4111;50.972;7.072;2022-07-10T09:07:55;102086.25;;;18.32;65.76
8140;BME280;4111;50.972;7.072;2022-07-10T09:10:26;102094.78;;;18.31;65.91
8140;BME280;4111;50.972;7.072;2022-07-10T09:13:00;102093.94;;;18.30;66.42
8140;BME280;4111;50.972;7.072;2022-07-10T09:15:30;102090.63;;;18.28;66.62
8140;BME280;4111;50.972;7.072;2022-07-10T09:18:01;102095.00;;;18.19;66.65
8140;BME280;4111;50.972;7.072;2022-07-10T09:20:32;102087.88;;;18.23;67.19
8140;BME280;4111;50.972;7.072;2022-07-10T09:23:22;102082.38;;;18.28;66.86
8140;BME280;4111;50.972;7.072;2022-07-10T09:25:51;102086.75;;;18.24;67.14
8140;BME280;4111;50.972;7.072;2022-07-10T09:28:21;102076.38;;;18.36;67.25
8140;BME280;4111;50.972;7.072;2022-07-10T09:30:48;102083.00;;;18.35;67.50
8140;BME280;4111;50.972;7.072;2022-07-10T09:33:25;102074.75;;;18.35;67.20
8140;BME280;4111;50.972;7.072;2022-07-10T09:35:59;102079.69;;;18.33;66.90
8140;BME280;4111;50.972;7.072;2022-07-10T09:41:23;102081.53;;;18.22;67.82
8140;BME280;4111;50.972;7.072;2022-07-10T09:46:33;102085.13;;;18.23;67.66
8140;BME280;4111;50.972;7.072;2022-07-10T09:49:12;102080.19;;;18.25;67.78
8140;BME280;4111;50.972;7.072;2022-07-10T09:54:14;102077.38;;;18.15;68.05
8140;BME280;4111;50.972;7.072;2022-07-10T09:56:46;102082.53;;;18.06;68.31
8140;BME280;4111;50.972;7.072;2022-07-10T09:59:15;102075.09;;;18.07;68.82
8140;BME280;4111;50.972;7.072;2022-07-10T10:01:47;102077.34;;;18.10;69.48
8140;BME280;4111;50.972;7.072;2022-07-10T10:04:15;102082.25;;;18.08;69.14
8140;BME280;4111;50.972;7.072;2022-07-10T10:06:42;102075.94;;;18.07;69.60
8140;BME280;4111;50.972;7.072;2022-07-10T10:09:12;102078.41;;;18.09;69.27
8140;BME280;4111;50.972;7.072;2022-07-10T10:11:44;102080.84;;;18.00;69.12
8140;BME280;4111;50.972;7.072;2022-07-10T10:14:12;102085.28;;;18.06;69.88
8140;BME280;4111;50.972;7.072;2022-07-10T10:16:43;102080.03;;;18.04;69.92
8140;BME280;4111;50.972;7.072;2022-07-10T10:19:11;102073.47;;;18.06;70.24
8140;BME280;4111;50.972;7.072;2022-07-10T10:21:57;102073.47;;;18.06;69.89
8140;BME280;4111;50.972;7.072;2022-07-10T10:24:25;102067.41;;;18.09;70.07
8140;BME280;4111;50.972;7.072;2022-07-10T10:26:52;102069.91;;;18.10;69.86
8140;BME280;4111;50.972;7.072;2022-07-10T10:29:19;102068.25;;;18.09;70.28
8140;BME280;4111;50.972;7.072;2022-07-10T10:31:46;102075.09;;;18.07;70.68
8140;BME280;4111;50.972;7.072;2022-07-10T10:34:13;102076.22;;;18.06;70.63
8140;BME280;4111;50.972;7.072;2022-07-10T10:36:45;102078.69;;;18.07;71.10
8140;BME280;4111;50.972;7.072;2022-07-10T10:41:41;102072.06;;;18.03;71.59
8140;BME280;4111;50.972;7.072;2022-07-10T10:46:36;102070.16;;;18.03;71.82
8140;BME280;4111;50.972;7.072;2022-07-10T10:49:21;102067.34;;;17.98;71.64
8140;BME280;4111;50.972;7.072;2022-07-10T10:52:10;102067.97;;;18.06;71.72
8140;BME280;4111;50.972;7.072;2022-07-10T10:57:43;102067.41;;;18.03;72.00
8140;BME280;4111;50.972;7.072;2022-07-10T11:00:14;102060.22;;;17.97;72.21
8140;BME280;4111;50.972;7.072;2022-07-10T11:02:41;102063.28;;;18.06;72.17
8140;BME280;4111;50.972;7.072;2022-07-10T11:07:57;102055.91;;;18.12;72.60
8140;BME280;4111;50.972;7.072;2022-07-10T11:13:01;102055.38;;;18.15;72.07
8140;BME280;4111;50.972;7.072;2022-07-10T11:15:30;102050.47;;;18.22;72.29
8140;BME280;4111;50.972;7.072;2022-07-10T11:17:57;102044.75;;;18.34;72.30
8140;BME280;4111;50.972;7.072;2022-07-10T11:20:24;102045.00;;;18.32;72.02
8140;BME280;4111;50.972;7.072;2022-07-10T11:26:07;102051.06;;;18.29;72.17
8140;BME280;4111;50.972;7.072;2022-07-10T11:31:10;102042.25;;;18.27;72.13
8140;BME280;4111;50.972;7.072;2022-07-10T11:33:41;102040.03;;;18.24;72.18
8140;BME280;4111;50.972;7.072;2022-07-10T11:36:18;102042.78;;;18.24;72.11
8140;BME280;4111;50.972;7.072;2022-07-10T11:38:46;102040.06;;;18.29;72.02
8140;BME280;4111;50.972;7.072;2022-07-10T11:41:18;102045.00;;;18.32;72.34
8140;BME280;4111;50.972;7.072;2022-07-10T11:44:01;102033.22;;;18.37;72.28
8140;BME280;4111;50.972;7.072;2022-07-10T11:46:32;102037.63;;;18.38;72.48
8140;BME280;4111;50.972;7.072;2022-07-10T11:49:02;102035.13;;;18.36;72.84
8140;BME280;4111;50.972;7.072;2022-07-10T11:51:34;102038.47;;;18.38;72.94
8140;BME280;4111;50.972;7.072;2022-07-10T11:56:33;102032.97;;;18.43;72.99
8140;BME280;4111;50.972;7.072;2022-07-10T11:59:03;102032.72;;;18.50;72.96
8140;BME280;4111;50.972;7.072;2022-07-10T12:01:33;102025.88;;;18.58;72.96
8140;BME280;4111;50.972;7.072;2022-07-10T12:04:04;102019.88;;;18.71;73.10
8140;BME280;4111;50.972;7.072;2022-07-10T12:06:33;102025.38;;;18.71;72.57
8140;BME280;4111;50.972;7.072;2022-07-10T12:09:08;102027.03;;;18.77;72.63
8140;BME280;4111;50.972;7.072;2022-07-10T12:11:35;102023.19;;;18.73;72.72
8140;BME280;4111;50.972;7.072;2022-07-10T12:14:19;102032.81;;;18.71;72.88
8140;BME280;4111;50.972;7.072;2022-07-10T12:16:46;102040.22;;;18.65;72.73
8140;BME280;4111;50.972;7.072;2022-07-10T12:19:18;102031.66;;;18.61;73.41
8140;BME280;4111;50.972;7.072;2022-07-10T12:21:46;102031.97;;;18.65;73.47
8140;BME280;4111;50.972;7.072;2022-07-10T12:24:16;102036.63;;;18.54;73.96
8140;BME280;4111;50.972;7.072;2022-07-10T12:26:43;102039.84;;;18.46;74.35
8140;BME280;4111;50.972;7.072;2022-07-10T12:29:29;102038.47;;;18.38;75.25
8140;BME280;4111;50.972;7.072;2022-07-10T12:31:57;102040.63;;;18.36;75.69
8140;BME280;4111;50.972;7.072;2022-07-10T12:37:10;102047.75;;;18.27;77.69
8140;BME280;4111;50.972;7.072;2022-07-10T12:39:39;102046.38;;;18.30;78.63
8140;BME280;4111;50.972;7.072;2022-07-10T12:42:11;102046.88;;;18.21;80.47
8140;BME280;4111;50.972;7.072;2022-07-10T12:47:12;102043.59;;;18.19;83.87
8140;BME280;4111;50.972;7.072;2022-07-10T12:49:55;102035.63;;;18.23;84.57
8140;BME280;4111;50.972;7.072;2022-07-10T12:52:27;102040.06;;;18.34;85.25
8140;BME280;4111;50.972;7.072;2022-07-10T12:55:14;102034.66;;;18.45;84.82
8140;BME280;4111;50.972;7.072;2022-07-10T13:00:18;102041.78;;;18.46;84.66
8140;BME280;4111;50.972;7.072;2022-07-10T13:02:46;102038.50;;;18.54;84.57
8140;BME280;4111;50.972;7.072;2022-07-10T13:05:34;102030.81;;;18.56;83.84
8140;BME280;4111;50.972;7.072;2022-07-10T13:10:34;102028.63;;;18.58;83.60
8140;BME280;4111;50.972;7.072;2022-07-10T13:13:03;102030.81;;;18.56;82.87
8140;BME280;4111;50.972;7.072;2022-07-10T13:15:30;102026.72;;;18.58;83.03
8140;BME280;4111;50.972;7.072;2022-07-10T13:17:57;102022.84;;;18.59;83.34
8140;BME280;4111;50.972;7.072;2022-07-10T13:20:24;102027.28;;;18.66;82.42
8140;BME280;4111;50.972;7.072;2022-07-10T13:22:50;102023.16;;;18.63;82.29
8140;BME280;4111;50.972;7.072;2022-07-10T13:25:17;102028.38;;;18.59;82.69
8140;BME280;4111;50.972;7.072;2022-07-10T13:27:43;102026.72;;;18.58;83.16
8140;BME280;4111;50.972;7.072;2022-07-10T13:30:10;102024.50;;;18.55;83.46
8140;BME280;4111;50.972;7.072;2022-07-10T13:32:37;102023.13;;;18.53;83.93
8140;BME280;4111;50.972;7.072;2022-07-10T13:35:04;102025.06;;;18.52;84.82
8140;BME280;4111;50.972;7.072;2022-07-10T13:37:30;102022.84;;;18.54;84.70
8140;BME280;4111;50.972;7.072;2022-07-10T13:39:57;102019.25;;;18.54;85.38
8140;BME280;4111;50.972;7.072;2022-07-10T13:42:24;102020.66;;;18.61;85.76
8140;BME280;4111;50.972;7.072;2022-07-10T13:44:50;102015.19;;;18.72;85.90
8140;BME280;4111;50.972;7.072;2022-07-10T13:47:17;102013.84;;;18.74;85.93
8140;BME280;4111;50.972;7.072;2022-07-10T13:49:44;102010.03;;;18.80;85.08
8140;BME280;4111;50.972;7.072;2022-07-10T13:52:10;102005.38;;;18.86;84.71
8140;BME280;4111;50.972;7.072;2022-07-10T13:54:37;102005.63;;;18.90;83.99
8140;BME280;4111;50.972;7.072;2022-07-10T13:57:03;102006.75;;;18.89;82.94